createdAt,value
2023-04-22T00:00:56.679Z,6.77
2023-04-22T00:03:26.251Z,10.30
2023-04-22T00:05:54.759Z,7.87
2023-04-22T00:08:23.000Z,9.37
2023-04-22T00:10:51.159Z,8.30
2023-04-22T00:13:19.658Z,7.63
2023-04-22T00:15:47.778Z,6.40
2023-04-22T00:18:16.283Z,9.40
2023-04-22T00:20:46.104Z,6.33
2023-04-22T00:23:15.941Z,6.27
2023-04-22T00:25:44.107Z,5.40
2023-04-22T00:28:12.359Z,8.17
2023-04-22T00:30:40.438Z,5.57
2023-04-22T00:33:08.449Z,6.43
2023-04-22T00:35:36.839Z,10.87
2023-04-22T00:38:07.225Z,6.20
2023-04-22T00:40:36.893Z,6.27
2023-04-22T00:43:05.116Z,6.83
2023-04-22T00:45:33.399Z,6.83
2023-04-22T00:48:02.149Z,7.03
2023-04-22T00:50:32.528Z,6.73
2023-04-22T00:53:00.656Z,7.57
2023-04-22T00:55:31.113Z,8.53
2023-04-22T00:58:03.350Z,10.43
2023-04-22T01:00:32.028Z,11.93
2023-04-22T01:03:00.333Z,9.83
2023-04-22T01:05:31.009Z,12.77
2023-04-22T01:08:01.306Z,13.03
2023-04-22T01:10:30.985Z,13.40
2023-04-22T01:12:58.884Z,15.00
2023-04-22T01:15:28.929Z,20.03
2023-04-22T01:17:58.208Z,17.37
2023-04-22T01:20:29.713Z,22.17
2023-04-22T01:22:58.360Z,19.80
2023-04-22T01:25:29.474Z,19.10
2023-04-22T01:27:58.337Z,16.10
2023-04-22T01:30:26.871Z,17.67
2023-04-22T01:32:55.089Z,20.30
2023-04-22T01:35:23.365Z,21.87
2023-04-22T01:37:53.134Z,17.47
2023-04-22T01:40:23.619Z,17.73
2023-04-22T01:42:55.104Z,8.87
2023-04-22T01:45:24.761Z,8.53
2023-04-22T01:47:52.758Z,8.17
2023-04-22T01:50:22.107Z,6.57
2023-04-22T01:52:51.510Z,6.47
2023-04-22T01:55:19.836Z,5.47
2023-04-22T01:57:47.909Z,5.57
2023-04-22T02:00:18.079Z,6.17
2023-04-22T02:02:46.197Z,6.43
2023-04-22T02:05:15.098Z,6.43
2023-04-22T02:07:43.089Z,7.63
2023-04-22T02:10:14.641Z,7.90
2023-04-22T02:12:42.798Z,6.73
2023-04-22T02:15:12.391Z,7.57
2023-04-22T02:17:43.850Z,6.40
2023-04-22T02:20:13.145Z,7.20
2023-04-22T02:22:43.488Z,7.13
2023-04-22T02:25:14.314Z,8.17
2023-04-22T02:27:42.594Z,7.23
2023-04-22T02:30:11.196Z,7.07
2023-04-22T02:32:40.351Z,9.03
2023-04-22T02:35:11.898Z,8.00
2023-04-22T02:37:40.748Z,7.73
2023-04-22T02:40:09.882Z,8.73
2023-04-22T02:42:38.000Z,10.80
2023-04-22T02:45:07.464Z,7.63
2023-04-22T02:47:35.867Z,8.23
2023-04-22T02:50:05.643Z,7.77
2023-04-22T02:52:36.078Z,8.67
2023-04-22T02:55:04.039Z,8.03
2023-04-22T02:57:32.024Z,7.47
2023-04-22T03:00:00.215Z,7.93
2023-04-22T03:02:28.252Z,10.67
2023-04-22T03:04:56.553Z,9.80
2023-04-22T03:07:24.552Z,8.73
2023-04-22T03:09:55.984Z,8.03
2023-04-22T03:12:24.102Z,8.07
2023-04-22T03:14:52.190Z,8.80
2023-04-22T03:17:20.825Z,8.87
2023-04-22T03:19:49.022Z,11.47
2023-04-22T03:22:17.191Z,7.67
2023-04-22T03:24:45.147Z,9.17
2023-04-22T03:27:15.871Z,8.17
2023-04-22T03:29:44.012Z,7.90
2023-04-22T03:32:12.517Z,8.90
2023-04-22T03:34:40.587Z,7.83
2023-04-22T03:37:09.120Z,7.50
2023-04-22T03:39:39.134Z,7.53
2023-04-22T03:42:07.562Z,7.33
2023-04-22T03:44:37.464Z,9.33
2023-04-22T03:47:05.605Z,7.07
2023-04-22T03:49:34.473Z,8.00
2023-04-22T03:52:02.883Z,7.40
2023-04-22T03:54:31.128Z,6.80
2023-04-22T03:56:59.457Z,7.07
2023-04-22T03:59:27.475Z,6.40
2023-04-22T04:01:57.224Z,6.63
2023-04-22T04:04:25.605Z,6.03
2023-04-22T04:06:54.130Z,6.83
2023-04-22T04:09:22.458Z,10.90
2023-04-22T04:11:50.935Z,7.43
2023-04-22T04:14:19.040Z,5.93
2023-04-22T04:16:47.185Z,6.83
2023-04-22T04:19:16.836Z,9.77
2023-04-22T04:21:45.545Z,7.53
2023-04-22T04:24:13.552Z,7.00
2023-04-22T04:26:42.596Z,6.80
2023-04-22T04:29:10.905Z,7.97
2023-04-22T04:31:39.122Z,6.20
2023-04-22T04:34:07.546Z,6.20
2023-04-22T04:36:39.962Z,5.93
2023-04-22T04:39:09.787Z,6.57
2023-04-22T04:41:39.033Z,8.60
2023-04-22T04:44:07.095Z,7.13
2023-04-22T04:46:37.979Z,8.67
2023-04-22T04:49:06.681Z,13.07
2023-04-22T04:51:36.068Z,14.70
2023-04-22T04:54:04.241Z,14.07
2023-04-22T04:56:32.808Z,12.57
2023-04-22T04:59:00.706Z,11.00
2023-04-22T05:01:28.745Z,10.67
2023-04-22T05:03:57.290Z,10.27
2023-04-22T05:06:25.701Z,13.80
2023-04-22T05:08:55.237Z,15.27
2023-04-22T05:11:23.298Z,9.97
2023-04-22T05:13:51.419Z,7.37
2023-04-22T05:16:19.551Z,10.90
2023-04-22T05:18:47.621Z,11.10
2023-04-22T05:21:16.867Z,10.83
2023-04-22T05:23:44.842Z,12.67
2023-04-22T05:26:14.317Z,12.20
2023-04-22T05:28:42.421Z,23.57
2023-04-22T05:31:10.430Z,13.17
2023-04-22T05:33:38.562Z,11.83
2023-04-22T05:36:07.391Z,11.83
2023-04-22T05:38:35.441Z,14.17
2023-04-22T05:41:03.313Z,12.37
2023-04-22T05:43:33.817Z,10.83
2023-04-22T05:46:01.949Z,11.63
2023-04-22T05:48:29.995Z,9.10
2023-04-22T05:50:58.244Z,12.50
2023-04-22T05:53:26.294Z,11.33
2023-04-22T05:55:55.420Z,11.20
2023-04-22T05:58:23.364Z,9.47
2023-04-22T06:00:52.762Z,8.17
2023-04-22T06:03:21.160Z,11.73
2023-04-22T06:05:49.374Z,9.40
2023-04-22T06:08:17.977Z,10.47
2023-04-22T06:10:46.267Z,9.23
2023-04-22T06:13:14.334Z,10.60
2023-04-22T06:15:42.563Z,10.30
2023-04-22T06:18:11.980Z,10.40
2023-04-22T06:20:40.347Z,12.63
2023-04-22T06:23:08.346Z,11.30
2023-04-22T06:25:37.099Z,11.43
2023-04-22T06:28:05.410Z,11.97
2023-04-22T06:30:33.474Z,9.43
2023-04-22T06:33:01.494Z,14.90
2023-04-22T06:35:31.142Z,10.53
2023-04-22T06:37:59.312Z,12.93
2023-04-22T06:40:27.767Z,9.03
2023-04-22T06:42:56.106Z,10.30
2023-04-22T06:45:24.221Z,10.17
2023-04-22T06:47:54.198Z,9.90
2023-04-22T06:50:22.256Z,15.40
2023-04-22T06:52:51.857Z,8.63
2023-04-22T06:55:22.666Z,8.60
2023-04-22T06:57:53.738Z,11.70
2023-04-22T07:00:21.750Z,10.40
2023-04-22T07:02:49.992Z,9.47
2023-04-22T07:05:18.195Z,10.30
2023-04-22T07:07:46.549Z,11.00
2023-04-22T07:10:18.573Z,8.63
2023-04-22T07:12:46.561Z,10.93
2023-04-22T07:15:15.037Z,6.27
2023-04-22T07:17:49.810Z,10.10
2023-04-22T07:20:17.863Z,8.80
2023-04-22T07:22:46.025Z,6.27
2023-04-22T07:25:16.071Z,7.43
2023-04-22T07:27:44.000Z,7.00
2023-04-22T07:30:13.711Z,9.80
2023-04-22T07:32:41.686Z,9.10
2023-04-22T07:35:10.238Z,6.40
2023-04-22T07:37:40.047Z,11.53
2023-04-22T07:40:12.113Z,9.07
2023-04-22T07:42:41.700Z,6.57
2023-04-22T07:45:10.053Z,6.67
2023-04-22T07:47:37.991Z,7.00
2023-04-22T07:50:07.477Z,7.90
2023-04-22T07:52:35.462Z,7.13
2023-04-22T07:55:03.510Z,4.90
2023-04-22T07:57:32.946Z,6.93
2023-04-22T08:00:02.956Z,7.20
2023-04-22T08:02:31.241Z,4.50
2023-04-22T08:04:59.282Z,6.03
2023-04-22T08:07:33.039Z,6.47
2023-04-22T08:10:01.692Z,5.93
2023-04-22T08:12:29.743Z,8.67
2023-04-22T08:14:58.182Z,11.80
2023-04-22T08:17:28.220Z,12.17
2023-04-22T08:19:57.828Z,8.83
2023-04-22T08:22:25.763Z,6.00
2023-04-22T08:24:53.646Z,7.10
2023-04-22T08:27:23.067Z,8.33
2023-04-22T08:29:51.284Z,8.90
2023-04-22T08:32:20.085Z,10.73
2023-04-22T08:34:51.804Z,8.53
2023-04-22T08:37:21.978Z,7.23
2023-04-22T08:39:50.339Z,12.13
2023-04-22T08:42:19.217Z,8.27
2023-04-22T08:44:48.234Z,7.87
2023-04-22T08:47:17.914Z,10.80
2023-04-22T08:49:47.934Z,7.40
2023-04-22T08:52:17.694Z,8.67
2023-04-22T08:54:46.279Z,9.37
2023-04-22T08:57:17.706Z,8.40
2023-04-22T08:59:46.759Z,8.43
2023-04-22T09:02:18.887Z,10.67
2023-04-22T09:04:48.993Z,8.27
2023-04-22T09:07:26.269Z,7.90
2023-04-22T09:09:55.016Z,5.47
2023-04-22T09:12:23.348Z,7.53
2023-04-22T09:14:52.840Z,5.73
2023-04-22T09:17:32.293Z,6.27
2023-04-22T09:20:01.165Z,6.77
2023-04-22T09:22:40.080Z,5.33
2023-04-22T09:25:16.080Z,5.17
2023-04-22T09:27:44.375Z,4.90
2023-04-22T09:30:14.814Z,9.97
2023-04-22T09:32:43.209Z,6.73
2023-04-22T09:35:11.271Z,4.67
2023-04-22T09:37:49.245Z,5.53
2023-04-22T09:40:19.623Z,8.03
2023-04-22T09:42:51.176Z,7.97
2023-04-22T09:45:30.057Z,5.00
2023-04-22T09:48:01.124Z,11.07
2023-04-22T09:50:30.546Z,4.67
2023-04-22T09:53:02.055Z,5.73
2023-04-22T09:55:32.377Z,4.97
2023-04-22T09:58:07.222Z,3.57
2023-04-22T10:00:39.345Z,3.07
2023-04-22T10:03:10.719Z,3.77
2023-04-22T10:05:39.530Z,2.00
2023-04-22T10:08:13.837Z,1.57
2023-04-22T10:10:42.862Z,5.33
2023-04-22T10:13:11.136Z,2.60
2023-04-22T10:15:41.592Z,1.47
2023-04-22T10:18:13.263Z,3.43
2023-04-22T10:20:42.719Z,2.00
2023-04-22T10:23:20.796Z,1.50
2023-04-22T10:25:51.532Z,2.13
2023-04-22T10:28:19.931Z,2.10
2023-04-22T10:30:48.667Z,2.57
2023-04-22T10:33:37.752Z,1.70
2023-04-22T10:36:16.982Z,3.97
2023-04-22T10:39:22.122Z,2.70
2023-04-22T10:42:05.763Z,1.77
2023-04-22T10:44:51.050Z,1.50
2023-04-22T10:47:30.018Z,5.00
2023-04-22T10:50:19.301Z,2.27
2023-04-22T10:52:51.445Z,2.83
2023-04-22T10:55:21.464Z,1.20
2023-04-22T10:57:51.133Z,2.47
2023-04-22T11:00:53.026Z,3.87
2023-04-22T11:03:28.333Z,1.50
2023-04-22T11:06:15.310Z,4.93
2023-04-22T11:08:47.796Z,1.50
2023-04-22T11:11:18.788Z,3.13
2023-04-22T11:13:50.652Z,6.13
2023-04-22T11:16:22.915Z,2.00
2023-04-22T11:18:52.627Z,1.80
2023-04-22T11:21:21.748Z,1.60
2023-04-22T11:23:53.248Z,1.80
2023-04-22T11:26:35.460Z,2.63
2023-04-22T11:29:03.649Z,2.20
2023-04-22T11:31:31.681Z,2.40
2023-04-22T11:34:00.558Z,1.97
2023-04-22T11:36:28.963Z,2.93
2023-04-22T11:38:57.214Z,2.13
2023-04-22T11:41:26.574Z,1.53
2023-04-22T11:43:55.862Z,2.33
2023-04-22T11:46:30.304Z,1.13
2023-04-22T11:49:13.054Z,2.70
2023-04-22T11:51:53.920Z,1.60
2023-04-22T11:54:31.951Z,1.03
2023-04-22T11:57:03.682Z,1.10
2023-04-22T11:59:31.682Z,1.47
2023-04-22T12:01:59.613Z,1.17
2023-04-22T12:04:27.578Z,1.50
2023-04-22T12:06:55.700Z,2.03
2023-04-22T12:09:25.928Z,2.30
2023-04-22T12:11:56.525Z,1.53
2023-04-22T12:14:33.675Z,1.50
2023-04-22T12:17:05.480Z,2.30
2023-04-22T12:19:33.574Z,2.43
2023-04-22T12:22:01.547Z,2.03
2023-04-22T12:24:30.560Z,1.77
2023-04-22T12:26:58.741Z,4.77
2023-04-22T12:29:33.343Z,2.23
2023-04-22T12:32:01.867Z,3.83
2023-04-22T12:34:29.798Z,2.63
2023-04-22T12:36:58.956Z,3.30
2023-04-22T12:39:28.729Z,4.50
2023-04-22T12:41:58.239Z,3.30
2023-04-22T12:44:26.214Z,3.37
2023-04-22T12:46:55.525Z,2.40
2023-04-22T12:49:23.623Z,2.50
2023-04-22T12:51:52.402Z,2.67
2023-04-22T12:54:20.592Z,3.10
2023-04-22T12:56:49.458Z,3.60
2023-04-22T12:59:17.304Z,1.73
2023-04-22T13:01:45.468Z,2.30
2023-04-22T13:04:15.269Z,2.50
2023-04-22T13:06:44.323Z,2.13
2023-04-22T13:09:13.009Z,2.40
2023-04-22T13:11:42.722Z,2.20
2023-04-22T13:14:12.015Z,2.60
2023-04-22T13:16:40.207Z,3.03
2023-04-22T13:19:10.846Z,2.60
2023-04-22T13:21:40.212Z,2.40
2023-04-22T13:24:09.006Z,2.13
2023-04-22T13:26:38.594Z,1.70
2023-04-22T13:29:11.178Z,1.90
2023-04-22T13:31:39.739Z,3.10
2023-04-22T13:34:07.856Z,1.97
2023-04-22T13:36:35.811Z,1.47
2023-04-22T13:39:06.243Z,2.07
2023-04-22T13:41:34.169Z,1.70
2023-04-22T13:44:04.058Z,4.70
2023-04-22T13:46:32.339Z,1.40
2023-04-22T13:49:00.507Z,1.50
2023-04-22T13:51:28.723Z,1.63
2023-04-22T13:53:56.870Z,2.20
2023-04-22T13:56:26.330Z,1.83
2023-04-22T13:58:55.738Z,1.50
2023-04-22T14:01:25.205Z,1.30
2023-04-22T14:03:54.996Z,2.90
2023-04-22T14:06:23.439Z,1.80
2023-04-22T14:08:53.209Z,1.60
2023-04-22T14:11:21.287Z,1.37
2023-04-22T14:13:50.919Z,1.63
2023-04-22T14:16:19.971Z,1.60
2023-04-22T14:18:48.338Z,2.30
2023-04-22T14:21:16.454Z,3.00
2023-04-22T14:23:44.777Z,2.97
2023-04-22T14:26:14.032Z,2.20
2023-04-22T14:28:42.962Z,1.87
2023-04-22T14:31:12.476Z,2.27
2023-04-22T14:33:41.294Z,2.17
2023-04-22T14:36:09.565Z,2.60
2023-04-22T14:38:37.754Z,3.53
2023-04-22T14:41:06.492Z,4.07
2023-04-22T14:43:34.823Z,2.13
2023-04-22T14:46:03.162Z,3.27
2023-04-22T14:48:35.434Z,1.83
2023-04-22T14:51:05.306Z,2.10
2023-04-22T14:53:33.312Z,2.70
2023-04-22T14:56:01.529Z,2.07
2023-04-22T14:58:31.710Z,2.47
2023-04-22T15:01:00.844Z,4.67
2023-04-22T15:03:29.368Z,2.20
2023-04-22T15:05:59.084Z,3.50
2023-04-22T15:08:27.451Z,2.30
2023-04-22T15:10:55.701Z,3.10
2023-04-22T15:13:23.795Z,2.20
2023-04-22T15:15:51.826Z,2.73
2023-04-22T15:18:20.092Z,1.97
2023-04-22T15:20:48.124Z,3.30
2023-04-22T15:23:17.637Z,1.70
2023-04-22T15:25:46.126Z,3.33
2023-04-22T15:28:14.154Z,5.17
2023-04-22T15:30:42.096Z,2.70
2023-04-22T15:33:10.314Z,2.27
2023-04-22T15:35:38.621Z,2.17
2023-04-22T15:38:07.990Z,1.67
2023-04-22T15:40:37.516Z,3.90
2023-04-22T15:43:05.857Z,3.20
2023-04-22T15:45:35.318Z,5.23
2023-04-22T15:48:03.380Z,2.47
2023-04-22T15:50:31.848Z,3.23
2023-04-22T15:52:59.744Z,4.77
2023-04-22T15:55:27.830Z,2.00
2023-04-22T15:57:57.655Z,1.67
2023-04-22T16:00:26.222Z,3.37
2023-04-22T16:02:56.242Z,4.03
2023-04-22T16:05:25.320Z,2.17
2023-04-22T16:07:54.076Z,3.37
2023-04-22T16:10:22.991Z,3.90
2023-04-22T16:12:51.437Z,3.73
2023-04-22T16:15:23.688Z,3.33
2023-04-22T16:17:52.021Z,3.27
2023-04-22T16:20:20.040Z,4.33
2023-04-22T16:22:48.527Z,3.03
2023-04-22T16:25:17.323Z,4.07
2023-04-22T16:27:45.669Z,3.27
2023-04-22T16:30:16.229Z,2.03
2023-04-22T16:32:45.954Z,3.80
2023-04-22T16:35:14.005Z,3.63
2023-04-22T16:37:42.108Z,3.53
2023-04-22T16:40:11.073Z,2.03
2023-04-22T16:42:39.405Z,3.33
2023-04-22T16:45:08.760Z,2.63
2023-04-22T16:47:36.974Z,3.97
2023-04-22T16:50:08.117Z,2.87
2023-04-22T16:52:36.023Z,4.97
2023-04-22T16:55:05.418Z,3.07
2023-04-22T16:57:34.096Z,4.03
2023-04-22T17:00:02.393Z,4.13
2023-04-22T17:02:31.061Z,4.10
2023-04-22T17:05:01.269Z,4.97
2023-04-22T17:07:30.537Z,3.50
2023-04-22T17:09:58.557Z,5.77
2023-04-22T17:12:26.673Z,5.00
2023-04-22T17:14:54.870Z,4.20
2023-04-22T17:17:22.931Z,4.07
2023-04-22T17:19:51.166Z,4.03
2023-04-22T17:22:19.263Z,3.70
2023-04-22T17:24:49.050Z,4.67
2023-04-22T17:27:18.260Z,3.70
2023-04-22T17:29:46.628Z,4.00
2023-04-22T17:32:14.893Z,4.53
2023-04-22T17:34:43.506Z,3.87
2023-04-22T17:37:11.875Z,4.13
2023-04-22T17:39:40.618Z,4.03
2023-04-22T17:42:10.368Z,4.53
2023-04-22T17:44:38.486Z,3.60
2023-04-22T17:47:07.699Z,3.57
2023-04-22T17:49:35.761Z,3.63
2023-04-22T17:52:03.762Z,4.17
2023-04-22T17:54:32.218Z,5.57
2023-04-22T17:57:02.233Z,7.03
2023-04-22T17:59:31.613Z,7.63
2023-04-22T18:02:01.417Z,6.47
2023-04-22T18:04:29.743Z,5.87
2023-04-22T18:06:57.766Z,7.27
2023-04-22T18:09:27.407Z,6.53
2023-04-22T18:11:58.408Z,4.77
2023-04-22T18:14:26.841Z,6.27
2023-04-22T18:16:56.696Z,5.77
2023-04-22T18:19:24.914Z,4.73
2023-04-22T18:21:59.656Z,7.33
2023-04-22T18:24:28.730Z,6.53
2023-04-22T18:26:58.159Z,7.30
2023-04-22T18:29:26.377Z,8.60
2023-04-22T18:31:55.979Z,9.40
2023-04-22T18:34:24.284Z,8.30
2023-04-22T18:36:52.492Z,5.50
2023-04-22T18:39:21.233Z,3.00
2023-04-22T18:41:49.296Z,5.43
2023-04-22T18:44:17.365Z,8.70
2023-04-22T18:46:46.017Z,6.00
2023-04-22T18:49:15.407Z,7.13
2023-04-22T18:51:43.438Z,5.33
2023-04-22T18:54:11.369Z,8.97
2023-04-22T18:56:39.276Z,6.07
2023-04-22T18:59:07.354Z,12.37
2023-04-22T19:01:35.805Z,5.83
2023-04-22T19:04:04.579Z,5.50
2023-04-22T19:06:33.992Z,6.37
2023-04-22T19:09:02.376Z,6.37
2023-04-22T19:11:30.586Z,6.23
2023-04-22T19:13:58.689Z,4.93
2023-04-22T19:16:26.759Z,4.77
2023-04-22T19:18:55.115Z,6.50
2023-04-22T19:21:23.599Z,3.70
2023-04-22T19:23:53.055Z,4.77
2023-04-22T19:26:21.382Z,3.57
2023-04-22T19:28:49.557Z,8.30
2023-04-22T19:31:18.754Z,2.70
2023-04-22T19:33:47.130Z,3.63
2023-04-22T19:36:15.321Z,4.50
2023-04-22T19:38:43.350Z,3.57
2023-04-22T19:41:13.696Z,3.03
2023-04-22T19:43:42.021Z,2.90
2023-04-22T19:46:10.063Z,6.17
2023-04-22T19:48:38.658Z,4.60
2023-04-22T19:51:07.620Z,4.07
2023-04-22T19:53:37.106Z,5.37
2023-04-22T19:56:05.148Z,3.63
2023-04-22T19:58:34.859Z,6.47
2023-04-22T20:01:03.818Z,3.63
2023-04-22T20:03:33.148Z,4.50
2023-04-22T20:06:03.064Z,5.37
2023-04-22T20:08:32.115Z,2.53
2023-04-22T20:11:00.751Z,3.23
2023-04-22T20:13:29.152Z,3.70
2023-04-22T20:16:01.082Z,5.47
2023-04-22T20:18:29.546Z,5.97
2023-04-22T20:20:59.228Z,5.63
2023-04-22T20:23:28.705Z,3.83
2023-04-22T20:25:58.000Z,4.67
2023-04-22T20:28:43.154Z,5.00
2023-04-22T20:31:13.136Z,5.67
2023-04-22T20:33:41.654Z,4.00
2023-04-22T20:36:11.855Z,2.90
2023-04-22T20:38:40.178Z,4.60
2023-04-22T20:41:10.293Z,6.07
2023-04-22T20:43:38.604Z,4.40
2023-04-22T20:46:06.782Z,5.40
2023-04-22T20:48:36.622Z,7.27
2023-04-22T20:51:05.733Z,3.97
2023-04-22T20:53:34.155Z,4.33
2023-04-22T20:56:02.218Z,6.27
2023-04-22T20:58:30.393Z,7.13
2023-04-22T21:00:58.299Z,5.03
2023-04-22T21:03:29.091Z,3.20
2023-04-22T21:05:59.824Z,5.07
2023-04-22T21:08:28.048Z,3.67
2023-04-22T21:10:57.839Z,3.90
2023-04-22T21:13:26.638Z,4.57
2023-04-22T21:15:59.118Z,5.27
2023-04-22T21:18:29.305Z,8.87
2023-04-22T21:20:59.909Z,8.63
2023-04-22T21:23:28.544Z,7.03
2023-04-22T21:25:57.705Z,5.40
2023-04-22T21:28:27.637Z,6.27
2023-04-22T21:30:56.347Z,5.17
2023-04-22T21:33:25.377Z,4.60
2023-04-22T21:35:53.509Z,4.83
2023-04-22T21:38:23.257Z,5.20
2023-04-22T21:40:51.293Z,5.00
2023-04-22T21:43:19.220Z,4.30
2023-04-22T21:45:47.100Z,4.80
2023-04-22T21:48:15.071Z,9.90
2023-04-22T21:50:43.420Z,5.63
2023-04-22T21:53:12.079Z,4.83
2023-04-22T21:55:42.673Z,4.27
2023-04-22T21:58:10.719Z,4.23
2023-04-22T22:00:39.012Z,4.53
2023-04-22T22:03:08.550Z,4.63
2023-04-22T22:05:37.867Z,5.87
2023-04-22T22:08:05.833Z,4.00
2023-04-22T22:10:34.068Z,4.10
2023-04-22T22:13:03.640Z,7.53
2023-04-22T22:15:31.841Z,6.03
2023-04-22T22:18:00.045Z,4.77
2023-04-22T22:20:29.754Z,5.63
2023-04-22T22:22:58.049Z,5.97
2023-04-22T22:25:26.244Z,4.73
2023-04-22T22:27:54.181Z,7.10
2023-04-22T22:30:23.707Z,4.57
2023-04-22T22:32:52.931Z,12.33
2023-04-22T22:35:21.298Z,6.33
2023-04-22T22:37:49.820Z,6.13
2023-04-22T22:40:18.054Z,5.03
2023-04-22T22:42:45.991Z,5.37
2023-04-22T22:45:14.565Z,6.57
2023-04-22T22:47:44.061Z,4.80
2023-04-22T22:50:12.666Z,3.93
2023-04-22T22:52:41.110Z,4.60
2023-04-22T22:55:10.199Z,6.43
2023-04-22T22:57:38.172Z,6.13
2023-04-22T23:00:09.479Z,3.93
2023-04-22T23:02:37.928Z,4.37
2023-04-22T23:05:11.149Z,5.80
2023-04-22T23:07:39.124Z,4.03
2023-04-22T23:10:08.985Z,3.93
2023-04-22T23:12:36.985Z,4.13
2023-04-22T23:15:05.830Z,6.17
2023-04-22T23:17:33.968Z,4.97
2023-04-22T23:20:02.741Z,5.17
2023-04-22T23:22:33.799Z,5.90
2023-04-22T23:25:02.306Z,5.47
2023-04-22T23:27:31.805Z,5.40
2023-04-22T23:30:00.437Z,7.13
2023-04-22T23:32:30.350Z,4.50
2023-04-22T23:35:01.328Z,5.53
2023-04-22T23:37:31.656Z,5.53
2023-04-22T23:40:00.974Z,4.00
2023-04-22T23:42:29.106Z,5.20
2023-04-22T23:44:58.466Z,4.87
2023-04-22T23:47:26.652Z,4.90
2023-04-22T23:49:54.683Z,6.93
2023-04-22T23:52:23.652Z,4.90
2023-04-22T23:54:55.124Z,6.13
2023-04-22T23:57:25.520Z,4.87
2023-04-22T23:59:54.003Z,6.80
